createdAt,value
2022-10-11T06:14:59.343Z,12.20
2022-10-11T06:17:37.082Z,12.17
2022-10-11T06:20:14.674Z,12.18
2022-10-11T06:22:52.141Z,12.19
2022-10-11T06:25:28.982Z,12.17
2022-10-11T06:28:06.111Z,12.18
2022-10-11T06:30:45.804Z,12.20
2022-10-11T06:33:24.132Z,12.21
2022-10-11T06:36:05.385Z,12.21
2022-10-11T06:38:45.251Z,12.24
2022-10-11T06:41:24.980Z,12.23
2022-10-11T06:44:02.162Z,12.26
2022-10-11T06:46:41.873Z,12.26
2022-10-11T06:49:23.103Z,12.31
2022-10-11T06:52:00.458Z,12.33
2022-10-11T06:54:42.520Z,12.33
2022-10-11T06:57:21.451Z,12.38
2022-10-11T06:59:58.679Z,12.39
2022-10-11T07:02:38.193Z,12.43
2022-10-11T07:05:15.273Z,12.38
2022-10-11T07:07:52.119Z,12.44
2022-10-11T07:10:29.311Z,12.43
2022-10-11T07:13:06.169Z,12.45
2022-10-11T07:15:44.108Z,12.45
2022-10-11T07:18:23.700Z,12.48
2022-10-11T07:21:00.983Z,12.49
2022-10-11T07:23:38.209Z,12.53
2022-10-11T07:26:16.129Z,12.61
2022-10-11T07:28:53.573Z,12.59
2022-10-11T07:31:31.475Z,12.60
2022-10-11T07:34:11.979Z,12.63
2022-10-11T07:36:49.207Z,12.67
2022-10-11T07:39:26.091Z,12.69
2022-10-11T07:42:03.395Z,12.73
2022-10-11T07:44:40.228Z,12.76
2022-10-11T07:47:17.540Z,12.80
2022-10-11T07:49:56.962Z,12.86
2022-10-11T07:52:34.151Z,12.89
2022-10-11T07:55:12.793Z,12.92
2022-10-11T07:57:49.932Z,12.94
2022-10-11T08:00:26.922Z,12.97
2022-10-11T08:03:07.030Z,13.06
2022-10-11T08:05:46.531Z,13.05
2022-10-11T08:08:23.703Z,13.08
2022-10-11T08:11:01.181Z,13.13
2022-10-11T08:13:38.931Z,13.14
2022-10-11T08:16:17.318Z,13.20
2022-10-11T08:18:54.772Z,13.23
2022-10-11T08:21:35.136Z,13.28
2022-10-11T08:24:14.061Z,13.31
2022-10-11T08:26:51.615Z,13.36
2022-10-11T08:29:28.729Z,13.38
2022-10-11T08:32:05.847Z,13.42
2022-10-11T08:34:43.011Z,13.47
2022-10-11T08:37:22.453Z,13.52
2022-10-11T08:39:59.811Z,13.57
2022-10-11T08:42:43.299Z,13.65
2022-10-11T08:45:31.841Z,13.72
2022-10-11T08:48:18.249Z,13.79
2022-10-11T08:50:57.742Z,13.90
2022-10-11T08:53:49.690Z,14.13
2022-10-11T08:56:29.663Z,14.50
2022-10-11T08:59:14.784Z,14.92
2022-10-11T09:02:00.191Z,15.48
2022-10-11T09:04:37.256Z,15.90
2022-10-11T09:07:28.904Z,16.35
2022-10-11T09:10:37.763Z,16.95
2022-10-11T09:13:36.083Z,17.38
2022-10-11T09:16:27.284Z,17.76
2022-10-11T09:19:35.998Z,17.81
2022-10-11T09:22:26.829Z,17.21
2022-10-11T09:25:28.639Z,16.62
2022-10-11T09:28:29.173Z,16.19
2022-10-11T09:31:06.588Z,15.94
2022-10-11T09:33:49.609Z,15.74
2022-10-11T09:36:32.178Z,15.49
2022-10-11T09:39:21.798Z,15.43
2022-10-11T09:42:05.403Z,15.69
2022-10-11T09:44:48.738Z,16.22
2022-10-11T09:47:29.099Z,16.59
2022-10-11T09:50:16.021Z,16.97
2022-10-11T09:52:54.684Z,17.46
2022-10-11T09:55:41.627Z,17.98
2022-10-11T09:58:33.737Z,18.14
2022-10-11T10:01:14.130Z,18.31
2022-10-11T10:03:51.271Z,18.01
2022-10-11T10:06:30.370Z,18.31
2022-10-11T10:09:30.724Z,18.16
2022-10-11T10:12:16.877Z,18.09
2022-10-11T10:15:10.211Z,17.95
2022-10-11T10:17:53.009Z,18.22
2022-10-11T10:20:34.717Z,18.37
2022-10-11T10:23:23.066Z,18.45
2022-10-11T10:26:16.638Z,18.46
2022-10-11T10:29:05.769Z,18.61
2022-10-11T10:32:14.645Z,18.77
2022-10-11T10:35:03.664Z,18.89
2022-10-11T10:37:46.746Z,18.82
2022-10-11T10:40:29.398Z,18.85
2022-10-11T10:43:06.824Z,18.74
2022-10-11T10:46:19.687Z,18.62
2022-10-11T10:52:54.248Z,18.57
2022-10-11T10:55:40.448Z,18.30
2022-10-11T10:58:41.037Z,18.27
2022-10-11T11:01:23.860Z,18.09
2022-10-11T11:04:19.202Z,17.74
2022-10-11T11:07:01.310Z,17.64
2022-10-11T11:09:50.686Z,17.58
2022-10-11T11:12:46.967Z,17.67
2022-10-11T11:15:33.125Z,17.83
2022-10-11T11:18:31.710Z,17.82
2022-10-11T11:21:30.398Z,17.86
2022-10-11T11:24:17.202Z,18.15
2022-10-11T11:27:02.426Z,18.21
2022-10-11T11:29:55.521Z,18.00
2022-10-11T11:32:45.563Z,18.07
2022-10-11T11:35:32.548Z,18.15
2022-10-11T11:38:20.047Z,18.28
2022-10-11T11:41:02.824Z,18.50
2022-10-11T11:43:49.027Z,18.64
2022-10-11T11:46:30.867Z,18.58
2022-10-11T11:49:18.808Z,18.23
2022-10-11T11:51:57.157Z,17.77
2022-10-11T11:54:50.719Z,17.92
2022-10-11T11:57:43.212Z,17.87
2022-10-11T12:00:24.367Z,17.88
2022-10-11T12:03:05.299Z,18.12
2022-10-11T12:06:02.831Z,18.52
2022-10-11T12:08:41.169Z,18.51
2022-10-11T12:11:35.272Z,18.50
2022-10-11T12:14:38.320Z,17.93
2022-10-11T12:17:23.109Z,18.07
2022-10-11T12:20:27.688Z,18.05
2022-10-11T12:23:08.199Z,17.95
2022-10-11T12:25:47.679Z,17.76
2022-10-11T12:29:16.189Z,17.47
2022-10-11T12:32:14.488Z,17.20
2022-10-11T12:34:51.473Z,17.27
2022-10-11T12:37:54.399Z,17.34
2022-10-11T12:40:42.323Z,17.32
2022-10-11T12:43:56.480Z,17.37
2022-10-11T12:47:20.610Z,17.15
2022-10-11T12:50:22.103Z,17.09
2022-10-11T12:53:09.239Z,16.67
2022-10-11T12:55:56.093Z,16.64
2022-10-11T12:58:41.960Z,16.76
2022-10-11T13:01:25.719Z,16.94
2022-10-11T13:04:07.862Z,17.14
2022-10-11T13:06:54.010Z,17.20
2022-10-11T13:09:34.493Z,17.26
2022-10-11T13:12:18.159Z,17.27
2022-10-11T13:15:04.219Z,17.26
2022-10-11T13:17:48.750Z,17.15
2022-10-11T13:20:31.599Z,17.29
2022-10-11T13:23:25.800Z,17.28
2022-10-11T13:26:05.127Z,17.18
2022-10-11T13:28:43.256Z,17.00
2022-10-11T13:31:20.518Z,16.79
2022-10-11T13:34:01.726Z,16.85
2022-10-11T13:36:38.550Z,16.77
2022-10-11T13:39:32.233Z,16.57
2022-10-11T13:42:14.120Z,16.55
2022-10-11T13:44:51.881Z,16.50
2022-10-11T13:47:33.459Z,16.44
2022-10-11T13:50:24.722Z,16.37
2022-10-11T13:53:04.322Z,16.48
2022-10-11T13:55:55.386Z,16.38
2022-10-11T13:58:41.030Z,16.34
2022-10-11T14:01:25.796Z,16.44
2022-10-11T14:04:06.123Z,16.45
2022-10-11T14:06:51.731Z,16.30
2022-10-11T14:09:33.686Z,15.87
2022-10-11T14:12:40.131Z,15.63
2022-10-11T14:15:31.961Z,15.30
2022-10-11T14:18:43.502Z,15.12
2022-10-11T14:21:51.853Z,15.04
2022-10-11T14:24:29.962Z,14.83
2022-10-11T14:27:11.581Z,14.82
2022-10-11T14:30:23.445Z,14.80
2022-10-11T14:32:54.203Z,14.69
2022-10-11T14:35:39.616Z,14.63
2022-10-11T14:38:17.557Z,14.50
2022-10-11T14:40:56.009Z,14.44
2022-10-11T14:43:33.607Z,14.50
2022-10-11T14:46:23.115Z,14.48
2022-10-11T14:49:01.141Z,14.38
2022-10-11T14:51:39.552Z,14.26
2022-10-11T14:54:19.244Z,14.18
2022-10-11T14:56:59.511Z,14.04
2022-10-11T14:59:40.293Z,14.12
2022-10-11T15:02:22.153Z,14.09
2022-10-11T15:04:59.282Z,14.08
2022-10-11T15:07:36.621Z,14.06
2022-10-11T15:10:25.084Z,13.93
2022-10-11T15:13:02.571Z,13.87
2022-10-11T15:15:42.039Z,13.76
2022-10-11T15:18:22.128Z,13.72
2022-10-11T15:20:59.470Z,13.66
2022-10-11T15:23:38.028Z,13.41
2022-10-11T15:26:19.087Z,13.42
2022-10-11T15:28:58.088Z,13.34
2022-10-11T15:31:35.019Z,13.20
2022-10-11T15:34:14.941Z,13.23
2022-10-11T15:36:52.407Z,13.22
2022-10-11T15:39:34.050Z,13.18
2022-10-11T15:42:11.147Z,13.16
2022-10-11T15:44:48.544Z,13.09
2022-10-11T15:47:25.339Z,13.04
2022-10-11T15:50:05.058Z,13.00
2022-10-11T15:52:41.978Z,12.96
2022-10-11T15:55:19.490Z,12.90
2022-10-11T15:57:56.349Z,12.85
2022-10-11T16:00:34.189Z,12.85
2022-10-11T16:03:11.399Z,12.81
2022-10-11T16:05:52.253Z,12.66
2022-10-11T16:08:29.559Z,12.64
2022-10-11T16:11:08.440Z,12.67
2022-10-11T16:13:45.505Z,12.63
2022-10-11T16:16:22.640Z,12.62
2022-10-11T16:18:59.520Z,12.56
2022-10-11T16:21:39.436Z,12.51
2022-10-11T16:24:16.359Z,12.51
2022-10-11T16:26:53.552Z,12.44
2022-10-11T16:29:30.399Z,12.45
2022-10-11T16:32:08.820Z,12.39
2022-10-11T16:34:45.999Z,12.36
2022-10-11T16:37:26.334Z,12.33
2022-10-11T16:40:03.239Z,12.29
2022-10-11T16:42:42.546Z,12.22
2022-10-11T16:45:20.307Z,12.19
2022-10-11T16:47:57.657Z,12.17
2022-10-11T16:50:39.269Z,12.11
2022-10-11T16:53:22.109Z,12.08
2022-10-11T16:56:00.193Z,12.03
2022-10-11T16:58:38.905Z,12.00
2022-10-11T17:01:17.692Z,11.95
2022-10-11T17:03:57.664Z,11.93
2022-10-11T17:06:35.599Z,11.91
2022-10-11T17:09:18.067Z,11.87
2022-10-11T17:11:56.488Z,11.85
2022-10-11T17:14:34.137Z,11.78
2022-10-11T17:17:33.346Z,11.75
2022-10-11T17:20:12.317Z,11.75
2022-10-11T17:22:53.685Z,11.71
2022-10-11T17:25:34.041Z,11.66
2022-10-11T17:28:12.176Z,11.65
2022-10-11T17:31:00.288Z,11.62
2022-10-11T17:33:38.002Z,11.61
2022-10-11T17:36:24.181Z,11.57
2022-10-11T17:39:03.971Z,11.52
2022-10-11T17:41:44.376Z,11.49
2022-10-11T17:44:22.427Z,11.46
2022-10-11T17:47:00.674Z,11.44
2022-10-11T17:49:37.491Z,11.39
2022-10-11T17:52:14.721Z,11.36
2022-10-11T17:54:51.574Z,11.30
2022-10-11T17:57:31.878Z,11.28
2022-10-11T18:00:11.444Z,11.19
2022-10-11T18:02:50.523Z,11.11
2022-10-11T18:05:27.730Z,11.08
2022-10-11T18:08:05.638Z,11.01
2022-10-11T18:10:47.341Z,10.94
2022-10-11T18:13:28.348Z,10.94
2022-10-11T18:16:07.891Z,10.88
2022-10-11T18:18:46.988Z,10.84
2022-10-11T18:21:24.298Z,10.83
2022-10-11T18:24:03.419Z,10.79
2022-10-11T18:26:41.617Z,10.76
2022-10-11T18:29:21.446Z,10.78
2022-10-11T18:31:58.666Z,10.73
2022-10-11T18:34:39.277Z,10.71
2022-10-11T18:37:16.826Z,10.69
2022-10-11T18:39:55.026Z,10.69
2022-10-11T18:42:32.036Z,10.67
2022-10-11T18:45:13.917Z,10.66
2022-10-11T18:47:56.822Z,10.65
2022-10-11T18:50:37.596Z,10.63
2022-10-11T18:53:17.066Z,10.60
2022-10-11T18:55:54.883Z,10.56
2022-10-11T18:58:34.155Z,10.53
2022-10-11T19:01:18.659Z,10.53
2022-10-11T19:03:59.970Z,10.53
2022-10-11T19:06:41.977Z,10.53
2022-10-11T19:09:22.696Z,10.50
2022-10-11T19:12:01.397Z,10.50
2022-10-11T19:14:39.454Z,10.48
2022-10-11T19:17:23.338Z,10.50
2022-10-11T19:20:00.725Z,10.49
2022-10-11T19:22:38.008Z,10.48
2022-10-11T19:25:15.304Z,10.45
2022-10-11T19:27:53.125Z,10.43
2022-10-11T19:30:32.247Z,10.42
2022-10-11T19:33:13.061Z,10.42
2022-10-11T19:35:59.556Z,10.41
2022-10-11T19:38:38.998Z,10.37
2022-10-11T19:41:21.694Z,10.40
2022-10-11T19:44:00.956Z,10.37
2022-10-11T19:46:51.044Z,10.38
2022-10-11T19:49:32.121Z,10.32
